sensor_id;sensor_type;location;lat;lon;timestamp;temperature;humidity
7598;DHT22;3840;59.32098800;18.06423600;2022-10-20T00:01:01;4.60;99.90
7598;DHT22;3840;59.32098800;18.06423600;2022-10-20T00:03:27;4.60;99.90
7598;DHT22;3840;59.32098800;18.06423600;2022-10-20T00:05:53;4.70;99.90
7598;DHT22;3840;59.32098800;18.06423600;2022-10-20T00:08:19;4.60;99.90
7598;DHT22;3840;59.32098800;18.06423600;2022-10-20T00:10:55;4.50;99.90
7598;DHT22;3840;59.32098800;18.06423600;2022-10-20T00:13:21;4.50;99.90
7598;DHT22;3840;59.32098800;18.06423600;2022-10-20T00:15:49;4.50;99.90
7598;DHT22;3840;59.32098800;18.06423600;2022-10-20T00:18:15;4.50;99.90
7598;DHT22;3840;59.32098800;18.06423600;2022-10-20T00:20:41;4.40;99.90
7598;DHT22;3840;59.32098800;18.06423600;2022-10-20T00:23:06;4.40;99.90
7598;DHT22;3840;59.32098800;18.06423600;2022-10-20T00:25:32;4.40;99.90
7598;DHT22;3840;59.32098800;18.06423600;2022-10-20T00:27:58;4.40;99.90
7598;DHT22;3840;59.32098800;18.06423600;2022-10-20T00:30:23;4.40;99.90
7598;DHT22;3840;59.32098800;18.06423600;2022-10-20T00:32:49;4.40;99.90
7598;DHT22;3840;59.32098800;18.06423600;2022-10-20T00:35:15;4.30;99.90
7598;DHT22;3840;59.32098800;18.06423600;2022-10-20T00:37:41;4.30;99.90
7598;DHT22;3840;59.32098800;18.06423600;2022-10-20T00:40:07;4.40;99.90
7598;DHT22;3840;59.32098800;18.06423600;2022-10-20T00:42:33;4.30;99.90
7598;DHT22;3840;59.32098800;18.06423600;2022-10-20T00:44:59;4.30;99.90
7598;DHT22;3840;59.32098800;18.06423600;2022-10-20T00:47:33;4.30;99.90
7598;DHT22;3840;59.32098800;18.06423600;2022-10-20T00:50:15;4.30;99.90
7598;DHT22;3840;59.32098800;18.06423600;2022-10-20T00:52:43;4.30;99.90
7598;DHT22;3840;59.32098800;18.06423600;2022-10-20T00:55:11;4.40;99.90
7598;DHT22;3840;59.32098800;18.06423600;2022-10-20T00:57:40;4.40;99.90
7598;DHT22;3840;59.32098800;18.06423600;2022-10-20T01:00:07;4.40;99.90
7598;DHT22;3840;59.32098800;18.06423600;2022-10-20T01:02:33;4.40;99.90
7598;DHT22;3840;59.32098800;18.06423600;2022-10-20T01:04:59;4.30;99.90
7598;DHT22;3840;59.32098800;18.06423600;2022-10-20T01:07:25;4.30;99.90
7598;DHT22;3840;59.32098800;18.06423600;2022-10-20T01:09:51;4.30;99.90
7598;DHT22;3840;59.32098800;18.06423600;2022-10-20T01:12:31;4.40;99.90
7598;DHT22;3840;59.32098800;18.06423600;2022-10-20T01:20:52;4.40;99.90
7598;DHT22;3840;59.32098800;18.06423600;2022-10-20T01:26:53;4.30;99.90
7598;DHT22;3840;59.32098800;18.06423600;2022-10-20T01:29:10;4.30;99.90
7598;DHT22;3840;59.32098800;18.06423600;2022-10-20T01:31:50;4.30;99.90
7598;DHT22;3840;59.32098800;18.06423600;2022-10-20T01:37:16;4.20;99.90
7598;DHT22;3840;59.32098800;18.06423600;2022-10-20T01:39:48;4.20;99.90
7598;DHT22;3840;59.32098800;18.06423600;2022-10-20T01:42:21;4.20;99.90
7598;DHT22;3840;59.32098800;18.06423600;2022-10-20T01:44:48;4.20;99.90
7598;DHT22;3840;59.32098800;18.06423600;2022-10-20T01:47:15;4.10;99.90
7598;DHT22;3840;59.32098800;18.06423600;2022-10-20T01:49:44;4.10;99.90
7598;DHT22;3840;59.32098800;18.06423600;2022-10-20T01:52:11;4.10;99.90
7598;DHT22;3840;59.32098800;18.06423600;2022-10-20T01:54:37;4.10;99.90
7598;DHT22;3840;59.32098800;18.06423600;2022-10-20T02:05:34;4.10;99.90
7598;DHT22;3840;59.32098800;18.06423600;2022-10-20T02:08:11;4.00;99.90
7598;DHT22;3840;59.32098800;18.06423600;2022-10-20T02:10:48;4.00;99.90
7598;DHT22;3840;59.32098800;18.06423600;2022-10-20T02:13:16;4.00;99.90
7598;DHT22;3840;59.32098800;18.06423600;2022-10-20T02:15:46;4.00;99.90
7598;DHT22;3840;59.32098800;18.06423600;2022-10-20T02:18:15;4.00;99.90
7598;DHT22;3840;59.32098800;18.06423600;2022-10-20T02:20:45;4.00;99.90
7598;DHT22;3840;59.32098800;18.06423600;2022-10-20T02:23:11;3.90;99.90
7598;DHT22;3840;59.32098800;18.06423600;2022-10-20T02:25:39;3.90;99.90
7598;DHT22;3840;59.32098800;18.06423600;2022-10-20T02:28:09;3.90;99.90
7598;DHT22;3840;59.32098800;18.06423600;2022-10-20T02:30:36;3.90;99.90
7598;DHT22;3840;59.32098800;18.06423600;2022-10-20T02:33:02;3.90;99.90
7598;DHT22;3840;59.32098800;18.06423600;2022-10-20T02:35:30;3.90;99.90
7598;DHT22;3840;59.32098800;18.06423600;2022-10-20T02:37:57;3.90;99.90
7598;DHT22;3840;59.32098800;18.06423600;2022-10-20T02:40:23;3.90;99.90
7598;DHT22;3840;59.32098800;18.06423600;2022-10-20T02:42:49;3.90;99.90
7598;DHT22;3840;59.32098800;18.06423600;2022-10-20T02:45:15;3.90;99.90
7598;DHT22;3840;59.32098800;18.06423600;2022-10-20T02:47:40;3.80;99.90
7598;DHT22;3840;59.32098800;18.06423600;2022-10-20T02:50:07;3.80;99.90
7598;DHT22;3840;59.32098800;18.06423600;2022-10-20T02:52:33;3.80;99.90
7598;DHT22;3840;59.32098800;18.06423600;2022-10-20T02:54:59;3.80;99.90
7598;DHT22;3840;59.32098800;18.06423600;2022-10-20T02:57:25;3.80;99.90
7598;DHT22;3840;59.32098800;18.06423600;2022-10-20T02:59:51;3.70;99.90
7598;DHT22;3840;59.32098800;18.06423600;2022-10-20T03:02:17;3.70;99.90
7598;DHT22;3840;59.32098800;18.06423600;2022-10-20T03:04:42;3.70;99.90
7598;DHT22;3840;59.32098800;18.06423600;2022-10-20T03:07:09;3.70;99.90
7598;DHT22;3840;59.32098800;18.06423600;2022-10-20T03:09:34;3.70;99.90
7598;DHT22;3840;59.32098800;18.06423600;2022-10-20T03:12:01;3.70;99.90
7598;DHT22;3840;59.32098800;18.06423600;2022-10-20T03:14:26;3.70;99.90
7598;DHT22;3840;59.32098800;18.06423600;2022-10-20T03:16:52;3.70;99.90
7598;DHT22;3840;59.32098800;18.06423600;2022-10-20T03:19:18;3.70;99.90
7598;DHT22;3840;59.32098800;18.06423600;2022-10-20T03:21:43;3.70;99.90
7598;DHT22;3840;59.32098800;18.06423600;2022-10-20T03:24:10;3.70;99.90
7598;DHT22;3840;59.32098800;18.06423600;2022-10-20T03:26:36;3.70;99.90
7598;DHT22;3840;59.32098800;18.06423600;2022-10-20T03:29:02;3.70;99.90
7598;DHT22;3840;59.32098800;18.06423600;2022-10-20T03:31:27;3.70;99.90
7598;DHT22;3840;59.32098800;18.06423600;2022-10-20T03:33:53;3.70;99.90
7598;DHT22;3840;59.32098800;18.06423600;2022-10-20T03:36:19;3.60;99.90
7598;DHT22;3840;59.32098800;18.06423600;2022-10-20T03:38:45;3.70;99.90
7598;DHT22;3840;59.32098800;18.06423600;2022-10-20T03:41:10;3.70;99.90
7598;DHT22;3840;59.32098800;18.06423600;2022-10-20T03:43:39;3.70;99.90
7598;DHT22;3840;59.32098800;18.06423600;2022-10-20T03:46:07;3.70;99.90
7598;DHT22;3840;59.32098800;18.06423600;2022-10-20T03:48:34;3.70;99.90
7598;DHT22;3840;59.32098800;18.06423600;2022-10-20T03:51:01;3.70;99.90
7598;DHT22;3840;59.32098800;18.06423600;2022-10-20T03:53:27;3.70;99.90
7598;DHT22;3840;59.32098800;18.06423600;2022-10-20T03:55:53;3.70;99.90
7598;DHT22;3840;59.32098800;18.06423600;2022-10-20T03:58:19;3.70;99.90
7598;DHT22;3840;59.32098800;18.06423600;2022-10-20T04:00:45;3.70;99.90
7598;DHT22;3840;59.32098800;18.06423600;2022-10-20T04:03:11;3.80;99.90
7598;DHT22;3840;59.32098800;18.06423600;2022-10-20T04:05:37;3.80;99.90
7598;DHT22;3840;59.32098800;18.06423600;2022-10-20T04:08:03;3.90;99.90
7598;DHT22;3840;59.32098800;18.06423600;2022-10-20T04:10:29;3.90;99.90
7598;DHT22;3840;59.32098800;18.06423600;2022-10-20T04:12:59;3.90;99.90
7598;DHT22;3840;59.32098800;18.06423600;2022-10-20T04:15:25;3.80;99.90
7598;DHT22;3840;59.32098800;18.06423600;2022-10-20T04:17:51;3.80;99.90
7598;DHT22;3840;59.32098800;18.06423600;2022-10-20T04:20:17;3.70;99.90
7598;DHT22;3840;59.32098800;18.06423600;2022-10-20T04:22:43;3.80;99.90
7598;DHT22;3840;59.32098800;18.06423600;2022-10-20T04:25:08;3.80;99.90
7598;DHT22;3840;59.32098800;18.06423600;2022-10-20T04:27:37;3.80;99.90
7598;DHT22;3840;59.32098800;18.06423600;2022-10-20T04:30:03;3.80;99.90
7598;DHT22;3840;59.32098800;18.06423600;2022-10-20T04:32:29;3.80;99.90
7598;DHT22;3840;59.32098800;18.06423600;2022-10-20T04:34:54;3.70;99.90
7598;DHT22;3840;59.32098800;18.06423600;2022-10-20T04:37:20;3.70;99.90
7598;DHT22;3840;59.32098800;18.06423600;2022-10-20T04:39:45;3.70;99.90
7598;DHT22;3840;59.32098800;18.06423600;2022-10-20T04:42:11;3.70;99.90
7598;DHT22;3840;59.32098800;18.06423600;2022-10-20T04:44:37;3.60;99.90
7598;DHT22;3840;59.32098800;18.06423600;2022-10-20T04:47:02;3.60;99.90
7598;DHT22;3840;59.32098800;18.06423600;2022-10-20T04:49:28;3.60;99.90
7598;DHT22;3840;59.32098800;18.06423600;2022-10-20T04:51:55;3.60;99.90
7598;DHT22;3840;59.32098800;18.06423600;2022-10-20T04:54:21;3.60;99.90
7598;DHT22;3840;59.32098800;18.06423600;2022-10-20T04:56:46;3.60;99.90
7598;DHT22;3840;59.32098800;18.06423600;2022-10-20T04:59:12;3.60;99.90
7598;DHT22;3840;59.32098800;18.06423600;2022-10-20T05:01:38;3.50;99.90
7598;DHT22;3840;59.32098800;18.06423600;2022-10-20T05:04:04;3.60;99.90
7598;DHT22;3840;59.32098800;18.06423600;2022-10-20T05:06:30;3.60;99.90
7598;DHT22;3840;59.32098800;18.06423600;2022-10-20T05:08:59;3.60;99.90
7598;DHT22;3840;59.32098800;18.06423600;2022-10-20T05:11:27;3.60;99.90
7598;DHT22;3840;59.32098800;18.06423600;2022-10-20T05:13:54;3.60;99.90
7598;DHT22;3840;59.32098800;18.06423600;2022-10-20T05:16:20;3.60;99.90
7598;DHT22;3840;59.32098800;18.06423600;2022-10-20T05:18:46;3.60;99.90
7598;DHT22;3840;59.32098800;18.06423600;2022-10-20T05:21:18;3.60;99.90
7598;DHT22;3840;59.32098800;18.06423600;2022-10-20T05:23:44;3.60;99.90
7598;DHT22;3840;59.32098800;18.06423600;2022-10-20T05:26:14;3.50;99.90
7598;DHT22;3840;59.32098800;18.06423600;2022-10-20T05:28:48;3.50;99.90
7598;DHT22;3840;59.32098800;18.06423600;2022-10-20T05:31:18;3.50;99.90
7598;DHT22;3840;59.32098800;18.06423600;2022-10-20T05:33:49;3.60;99.90
7598;DHT22;3840;59.32098800;18.06423600;2022-10-20T05:36:17;3.60;99.90
7598;DHT22;3840;59.32098800;18.06423600;2022-10-20T05:38:45;3.60;99.90
7598;DHT22;3840;59.32098800;18.06423600;2022-10-20T05:41:16;3.60;99.90
7598;DHT22;3840;59.32098800;18.06423600;2022-10-20T05:43:47;3.60;99.90
7598;DHT22;3840;59.32098800;18.06423600;2022-10-20T05:46:13;3.50;99.90
7598;DHT22;3840;59.32098800;18.06423600;2022-10-20T05:48:39;3.50;99.90
7598;DHT22;3840;59.32098800;18.06423600;2022-10-20T05:51:09;3.40;99.90
7598;DHT22;3840;59.32098800;18.06423600;2022-10-20T05:53:36;3.40;99.90
7598;DHT22;3840;59.32098800;18.06423600;2022-10-20T05:56:07;3.40;99.90
7598;DHT22;3840;59.32098800;18.06423600;2022-10-20T05:58:34;3.40;99.90
7598;DHT22;3840;59.32098800;18.06423600;2022-10-20T06:01:04;3.30;99.90
7598;DHT22;3840;59.32098800;18.06423600;2022-10-20T06:03:30;3.40;99.90
7598;DHT22;3840;59.32098800;18.06423600;2022-10-20T06:05:57;3.30;99.90
7598;DHT22;3840;59.32098800;18.06423600;2022-10-20T06:08:23;3.30;99.90
7598;DHT22;3840;59.32098800;18.06423600;2022-10-20T06:10:49;3.30;99.90
7598;DHT22;3840;59.32098800;18.06423600;2022-10-20T06:13:14;3.30;99.90
7598;DHT22;3840;59.32098800;18.06423600;2022-10-20T06:15:40;3.30;99.90
7598;DHT22;3840;59.32098800;18.06423600;2022-10-20T06:18:06;3.40;99.90
7598;DHT22;3840;59.32098800;18.06423600;2022-10-20T06:20:31;3.40;99.90
7598;DHT22;3840;59.32098800;18.06423600;2022-10-20T06:22:57;3.60;99.90
7598;DHT22;3840;59.32098800;18.06423600;2022-10-20T06:25:23;3.60;99.90
7598;DHT22;3840;59.32098800;18.06423600;2022-10-20T06:27:48;3.50;99.90
7598;DHT22;3840;59.32098800;18.06423600;2022-10-20T06:30:14;3.50;99.90
7598;DHT22;3840;59.32098800;18.06423600;2022-10-20T06:32:39;3.50;99.90
7598;DHT22;3840;59.32098800;18.06423600;2022-10-20T06:35:05;3.60;99.90
7598;DHT22;3840;59.32098800;18.06423600;2022-10-20T06:37:32;3.70;99.90
7598;DHT22;3840;59.32098800;18.06423600;2022-10-20T06:39:58;4.00;99.90
7598;DHT22;3840;59.32098800;18.06423600;2022-10-20T06:42:24;3.60;99.90
7598;DHT22;3840;59.32098800;18.06423600;2022-10-20T06:44:49;3.60;99.90
7598;DHT22;3840;59.32098800;18.06423600;2022-10-20T06:47:15;3.60;99.90
7598;DHT22;3840;59.32098800;18.06423600;2022-10-20T06:49:41;3.60;99.90
7598;DHT22;3840;59.32098800;18.06423600;2022-10-20T06:52:06;3.70;99.90
7598;DHT22;3840;59.32098800;18.06423600;2022-10-20T06:54:32;3.60;99.90
7598;DHT22;3840;59.32098800;18.06423600;2022-10-20T06:56:57;3.70;99.90
7598;DHT22;3840;59.32098800;18.06423600;2022-10-20T06:59:23;3.60;99.90
7598;DHT22;3840;59.32098800;18.06423600;2022-10-20T07:01:49;3.70;99.90
7598;DHT22;3840;59.32098800;18.06423600;2022-10-20T07:04:15;3.70;99.90
7598;DHT22;3840;59.32098800;18.06423600;2022-10-20T07:06:43;3.80;99.90
7598;DHT22;3840;59.32098800;18.06423600;2022-10-20T07:09:13;3.80;99.90
7598;DHT22;3840;59.32098800;18.06423600;2022-10-20T07:11:39;3.90;99.90
7598;DHT22;3840;59.32098800;18.06423600;2022-10-20T07:14:06;3.90;99.90
7598;DHT22;3840;59.32098800;18.06423600;2022-10-20T07:16:33;4.00;99.90
7598;DHT22;3840;59.32098800;18.06423600;2022-10-20T07:19:00;4.00;99.90
7598;DHT22;3840;59.32098800;18.06423600;2022-10-20T07:21:27;4.00;99.90
7598;DHT22;3840;59.32098800;18.06423600;2022-10-20T07:23:54;4.10;99.90
7598;DHT22;3840;59.32098800;18.06423600;2022-10-20T07:26:25;4.10;99.90
7598;DHT22;3840;59.32098800;18.06423600;2022-10-20T07:28:56;4.20;99.90
7598;DHT22;3840;59.32098800;18.06423600;2022-10-20T07:31:31;4.20;99.90
7598;DHT22;3840;59.32098800;18.06423600;2022-10-20T07:33:58;4.30;99.90
7598;DHT22;3840;59.32098800;18.06423600;2022-10-20T07:36:26;4.30;99.90
7598;DHT22;3840;59.32098800;18.06423600;2022-10-20T07:38:54;4.30;99.90
7598;DHT22;3840;59.32098800;18.06423600;2022-10-20T07:41:20;4.40;99.90
7598;DHT22;3840;59.32098800;18.06423600;2022-10-20T07:43:46;4.40;99.90
7598;DHT22;3840;59.32098800;18.06423600;2022-10-20T07:46:12;4.40;99.90
7598;DHT22;3840;59.32098800;18.06423600;2022-10-20T07:48:38;4.50;99.90
7598;DHT22;3840;59.32098800;18.06423600;2022-10-20T07:54:00;4.50;99.90
7598;DHT22;3840;59.32098800;18.06423600;2022-10-20T07:56:34;4.50;99.90
7598;DHT22;3840;59.32098800;18.06423600;2022-10-20T07:59:00;4.60;99.90
7598;DHT22;3840;59.32098800;18.06423600;2022-10-20T08:01:26;4.70;99.90
7598;DHT22;3840;59.32098800;18.06423600;2022-10-20T08:03:52;4.70;99.90
7598;DHT22;3840;59.32098800;18.06423600;2022-10-20T08:06:18;4.70;99.90
7598;DHT22;3840;59.32098800;18.06423600;2022-10-20T08:08:44;4.70;99.90
7598;DHT22;3840;59.32098800;18.06423600;2022-10-20T08:11:09;4.70;99.90
7598;DHT22;3840;59.32098800;18.06423600;2022-10-20T08:13:35;4.70;99.90
7598;DHT22;3840;59.32098800;18.06423600;2022-10-20T08:16:02;4.80;99.90
7598;DHT22;3840;59.32098800;18.06423600;2022-10-20T08:18:28;4.80;99.90
7598;DHT22;3840;59.32098800;18.06423600;2022-10-20T08:21:08;4.90;99.90
7598;DHT22;3840;59.32098800;18.06423600;2022-10-20T08:23:37;4.90;99.90
7598;DHT22;3840;59.32098800;18.06423600;2022-10-20T08:26:03;4.90;99.90
7598;DHT22;3840;59.32098800;18.06423600;2022-10-20T08:28:29;4.90;99.90
7598;DHT22;3840;59.32098800;18.06423600;2022-10-20T08:30:54;5.00;99.90
7598;DHT22;3840;59.32098800;18.06423600;2022-10-20T08:33:20;5.00;99.90
7598;DHT22;3840;59.32098800;18.06423600;2022-10-20T08:35:46;5.00;99.90
7598;DHT22;3840;59.32098800;18.06423600;2022-10-20T08:38:13;5.10;99.90
7598;DHT22;3840;59.32098800;18.06423600;2022-10-20T08:40:40;5.20;99.90
7598;DHT22;3840;59.32098800;18.06423600;2022-10-20T08:43:15;5.20;99.90
7598;DHT22;3840;59.32098800;18.06423600;2022-10-20T08:45:41;5.70;99.90
7598;DHT22;3840;59.32098800;18.06423600;2022-10-20T08:48:14;5.30;99.90
7598;DHT22;3840;59.32098800;18.06423600;2022-10-20T08:50:45;5.30;99.90
7598;DHT22;3840;59.32098800;18.06423600;2022-10-20T08:53:12;5.30;99.90
7598;DHT22;3840;59.32098800;18.06423600;2022-10-20T08:55:38;5.40;99.90
7598;DHT22;3840;59.32098800;18.06423600;2022-10-20T08:58:04;5.40;99.90
7598;DHT22;3840;59.32098800;18.06423600;2022-10-20T09:00:35;5.50;99.90
7598;DHT22;3840;59.32098800;18.06423600;2022-10-20T09:03:22;5.60;99.90
7598;DHT22;3840;59.32098800;18.06423600;2022-10-20T09:05:59;5.50;99.90
7598;DHT22;3840;59.32098800;18.06423600;2022-10-20T09:08:28;5.60;99.90
7598;DHT22;3840;59.32098800;18.06423600;2022-10-20T09:10:55;5.50;99.90
7598;DHT22;3840;59.32098800;18.06423600;2022-10-20T09:13:27;5.60;99.90
7598;DHT22;3840;59.32098800;18.06423600;2022-10-20T09:16:07;5.70;99.90
7598;DHT22;3840;59.32098800;18.06423600;2022-10-20T09:18:38;5.70;99.90
7598;DHT22;3840;59.32098800;18.06423600;2022-10-20T09:21:11;5.80;99.90
7598;DHT22;3840;59.32098800;18.06423600;2022-10-20T09:23:42;5.80;99.90
7598;DHT22;3840;59.32098800;18.06423600;2022-10-20T09:26:20;5.90;99.90
7598;DHT22;3840;59.32098800;18.06423600;2022-10-20T09:28:50;5.90;99.90
7598;DHT22;3840;59.32098800;18.06423600;2022-10-20T09:31:33;5.90;99.90
7598;DHT22;3840;59.32098800;18.06423600;2022-10-20T09:33:59;6.00;99.90
7598;DHT22;3840;59.32098800;18.06423600;2022-10-20T09:36:30;6.00;99.90
7598;DHT22;3840;59.32098800;18.06423600;2022-10-20T09:38:58;6.10;99.90
7598;DHT22;3840;59.32098800;18.06423600;2022-10-20T09:41:30;6.10;99.90
7598;DHT22;3840;59.32098800;18.06423600;2022-10-20T09:46:33;6.20;99.90
7598;DHT22;3840;59.32098800;18.06423600;2022-10-20T09:51:51;6.30;99.90
7598;DHT22;3840;59.32098800;18.06423600;2022-10-20T09:54:18;6.40;99.90
7598;DHT22;3840;59.32098800;18.06423600;2022-10-20T09:56:45;6.40;99.90
7598;DHT22;3840;59.32098800;18.06423600;2022-10-20T09:59:24;6.40;99.90
7598;DHT22;3840;59.32098800;18.06423600;2022-10-20T10:02:24;6.50;99.90
7598;DHT22;3840;59.32098800;18.06423600;2022-10-20T10:04:48;6.50;99.90
7598;DHT22;3840;59.32098800;18.06423600;2022-10-20T10:07:35;6.50;99.90
7598;DHT22;3840;59.32098800;18.06423600;2022-10-20T10:10:24;6.60;99.90
7598;DHT22;3840;59.32098800;18.06423600;2022-10-20T10:12:55;6.70;99.90
7598;DHT22;3840;59.32098800;18.06423600;2022-10-20T10:17:49;6.70;99.90
7598;DHT22;3840;59.32098800;18.06423600;2022-10-20T10:22:42;6.80;99.90
7598;DHT22;3840;59.32098800;18.06423600;2022-10-20T10:25:38;6.80;99.90
7598;DHT22;3840;59.32098800;18.06423600;2022-10-20T10:28:18;6.90;99.90
7598;DHT22;3840;59.32098800;18.06423600;2022-10-20T10:30:44;6.90;99.90
7598;DHT22;3840;59.32098800;18.06423600;2022-10-20T10:33:27;6.90;99.90
7598;DHT22;3840;59.32098800;18.06423600;2022-10-20T10:35:53;7.00;99.90
7598;DHT22;3840;59.32098800;18.06423600;2022-10-20T10:38:19;7.10;99.90
7598;DHT22;3840;59.32098800;18.06423600;2022-10-20T10:46:15;7.20;99.90
7598;DHT22;3840;59.32098800;18.06423600;2022-10-20T10:56:55;7.30;99.90
7598;DHT22;3840;59.32098800;18.06423600;2022-10-20T10:59:35;7.30;99.90
7598;DHT22;3840;59.32098800;18.06423600;2022-10-20T11:07:54;7.40;99.90
7598;DHT22;3840;59.32098800;18.06423600;2022-10-20T11:10:34;7.40;99.90
7598;DHT22;3840;59.32098800;18.06423600;2022-10-20T11:21:25;7.60;99.90
7598;DHT22;3840;59.32098800;18.06423600;2022-10-20T11:26:50;7.60;99.90
7598;DHT22;3840;59.32098800;18.06423600;2022-10-20T11:29:40;7.60;99.90
7598;DHT22;3840;59.32098800;18.06423600;2022-10-20T11:37:31;7.70;99.90
7598;DHT22;3840;59.32098800;18.06423600;2022-10-20T11:47:52;7.80;99.90
7598;DHT22;3840;59.32098800;18.06423600;2022-10-20T11:50:21;7.80;99.90
7598;DHT22;3840;59.32098800;18.06423600;2022-10-20T11:55:34;7.80;99.90
7598;DHT22;3840;59.32098800;18.06423600;2022-10-20T12:14:40;7.90;99.90
7598;DHT22;3840;59.32098800;18.06423600;2022-10-20T12:17:36;7.90;99.90
7598;DHT22;3840;59.32098800;18.06423600;2022-10-20T12:23:03;7.90;99.90
7598;DHT22;3840;59.32098800;18.06423600;2022-10-20T12:25:38;7.90;99.90
7598;DHT22;3840;59.32098800;18.06423600;2022-10-20T12:31:05;7.90;99.90
7598;DHT22;3840;59.32098800;18.06423600;2022-10-20T12:38:46;7.70;99.90
7598;DHT22;3840;59.32098800;18.06423600;2022-10-20T12:41:27;7.90;99.90
7598;DHT22;3840;59.32098800;18.06423600;2022-10-20T12:44:03;7.90;99.90
7598;DHT22;3840;59.32098800;18.06423600;2022-10-20T12:46:31;8.00;99.90
7598;DHT22;3840;59.32098800;18.06423600;2022-10-20T12:49:01;7.90;99.90
7598;DHT22;3840;59.32098800;18.06423600;2022-10-20T12:51:52;7.90;99.90
7598;DHT22;3840;59.32098800;18.06423600;2022-10-20T12:54:34;7.90;99.90
7598;DHT22;3840;59.32098800;18.06423600;2022-10-20T12:57:06;7.90;99.90
7598;DHT22;3840;59.32098800;18.06423600;2022-10-20T12:59:50;7.90;99.90
7598;DHT22;3840;59.32098800;18.06423600;2022-10-20T13:04:54;7.90;99.90
7598;DHT22;3840;59.32098800;18.06423600;2022-10-20T13:10:33;7.90;99.90
7598;DHT22;3840;59.32098800;18.06423600;2022-10-20T13:23:05;7.90;99.90
7598;DHT22;3840;59.32098800;18.06423600;2022-10-20T13:25:48;8.80;99.90
7598;DHT22;3840;59.32098800;18.06423600;2022-10-20T13:28:20;7.90;99.90
7598;DHT22;3840;59.32098800;18.06423600;2022-10-20T13:33:24;8.00;99.90
7598;DHT22;3840;59.32098800;18.06423600;2022-10-20T13:38:27;8.00;99.90
7598;DHT22;3840;59.32098800;18.06423600;2022-10-20T13:41:19;8.00;99.90
7598;DHT22;3840;59.32098800;18.06423600;2022-10-20T13:44:24;8.00;99.90
7598;DHT22;3840;59.32098800;18.06423600;2022-10-20T13:47:07;8.00;99.90
7598;DHT22;3840;59.32098800;18.06423600;2022-10-20T13:50:07;7.90;99.90
7598;DHT22;3840;59.32098800;18.06423600;2022-10-20T13:52:33;7.90;99.90
7598;DHT22;3840;59.32098800;18.06423600;2022-10-20T13:55:00;8.00;99.90
7598;DHT22;3840;59.32098800;18.06423600;2022-10-20T13:57:28;8.00;99.90
7598;DHT22;3840;59.32098800;18.06423600;2022-10-20T14:03:16;8.00;99.90
7598;DHT22;3840;59.32098800;18.06423600;2022-10-20T14:05:42;8.00;99.90
7598;DHT22;3840;59.32098800;18.06423600;2022-10-20T14:08:09;8.00;99.90
7598;DHT22;3840;59.32098800;18.06423600;2022-10-20T14:11:01;8.00;99.90
7598;DHT22;3840;59.32098800;18.06423600;2022-10-20T14:13:31;8.00;99.90
7598;DHT22;3840;59.32098800;18.06423600;2022-10-20T14:16:03;8.00;99.90
7598;DHT22;3840;59.32098800;18.06423600;2022-10-20T14:18:32;8.00;99.90
7598;DHT22;3840;59.32098800;18.06423600;2022-10-20T14:21:18;8.10;99.90
7598;DHT22;3840;59.32098800;18.06423600;2022-10-20T14:23:45;8.10;99.90
7598;DHT22;3840;59.32098800;18.06423600;2022-10-20T14:26:19;8.00;99.90
7598;DHT22;3840;59.32098800;18.06423600;2022-10-20T14:28:47;8.00;99.90
7598;DHT22;3840;59.32098800;18.06423600;2022-10-20T14:31:14;8.00;99.90
7598;DHT22;3840;59.32098800;18.06423600;2022-10-20T14:33:43;8.00;99.90
7598;DHT22;3840;59.32098800;18.06423600;2022-10-20T14:36:27;8.00;99.90
7598;DHT22;3840;59.32098800;18.06423600;2022-10-20T14:38:57;8.00;99.90
7598;DHT22;3840;59.32098800;18.06423600;2022-10-20T14:41:33;8.00;99.90
7598;DHT22;3840;59.32098800;18.06423600;2022-10-20T14:44:03;7.90;99.90
7598;DHT22;3840;59.32098800;18.06423600;2022-10-20T14:46:34;7.90;99.90
7598;DHT22;3840;59.32098800;18.06423600;2022-10-20T14:49:00;7.90;99.90
7598;DHT22;3840;59.32098800;18.06423600;2022-10-20T14:51:45;7.90;99.90
7598;DHT22;3840;59.32098800;18.06423600;2022-10-20T14:59:27;8.10;99.90
7598;DHT22;3840;59.32098800;18.06423600;2022-10-20T15:04:37;7.70;99.90
7598;DHT22;3840;59.32098800;18.06423600;2022-10-20T15:07:48;7.70;99.90
7598;DHT22;3840;59.32098800;18.06423600;2022-10-20T15:09:58;7.80;99.90
7598;DHT22;3840;59.32098800;18.06423600;2022-10-20T15:12:31;7.70;99.90
7598;DHT22;3840;59.32098800;18.06423600;2022-10-20T15:18:07;7.50;99.90
7598;DHT22;3840;59.32098800;18.06423600;2022-10-20T15:23:03;7.40;99.90
7598;DHT22;3840;59.32098800;18.06423600;2022-10-20T15:25:32;7.40;99.90
7598;DHT22;3840;59.32098800;18.06423600;2022-10-20T15:28:00;7.40;99.90
7598;DHT22;3840;59.32098800;18.06423600;2022-10-20T15:30:25;7.40;99.90
7598;DHT22;3840;59.32098800;18.06423600;2022-10-20T15:32:52;7.40;99.90
7598;DHT22;3840;59.32098800;18.06423600;2022-10-20T15:35:20;7.40;99.90
7598;DHT22;3840;59.32098800;18.06423600;2022-10-20T15:37:49;7.40;99.90
7598;DHT22;3840;59.32098800;18.06423600;2022-10-20T15:40:16;7.40;99.90
7598;DHT22;3840;59.32098800;18.06423600;2022-10-20T15:42:41;7.30;99.90
7598;DHT22;3840;59.32098800;18.06423600;2022-10-20T15:45:21;7.20;99.90
7598;DHT22;3840;59.32098800;18.06423600;2022-10-20T15:47:47;7.20;99.90
7598;DHT22;3840;59.32098800;18.06423600;2022-10-20T15:50:13;7.20;99.90
7598;DHT22;3840;59.32098800;18.06423600;2022-10-20T15:52:40;7.20;99.90
7598;DHT22;3840;59.32098800;18.06423600;2022-10-20T15:55:20;7.10;99.90
7598;DHT22;3840;59.32098800;18.06423600;2022-10-20T15:57:49;7.10;99.90
7598;DHT22;3840;59.32098800;18.06423600;2022-10-20T16:00:18;7.10;99.90
7598;DHT22;3840;59.32098800;18.06423600;2022-10-20T16:02:45;7.10;99.90
7598;DHT22;3840;59.32098800;18.06423600;2022-10-20T16:05:11;7.10;99.90
7598;DHT22;3840;59.32098800;18.06423600;2022-10-20T16:07:36;7.20;99.90
7598;DHT22;3840;59.32098800;18.06423600;2022-10-20T16:10:04;7.20;99.90
7598;DHT22;3840;59.32098800;18.06423600;2022-10-20T16:12:31;7.20;99.90
7598;DHT22;3840;59.32098800;18.06423600;2022-10-20T16:14:57;7.20;99.90
7598;DHT22;3840;59.32098800;18.06423600;2022-10-20T16:17:22;7.20;99.90
7598;DHT22;3840;59.32098800;18.06423600;2022-10-20T16:19:50;7.10;99.90
7598;DHT22;3840;59.32098800;18.06423600;2022-10-20T16:22:17;7.10;99.90
7598;DHT22;3840;59.32098800;18.06423600;2022-10-20T16:24:43;7.20;99.90